• Join FlightAware (Why Join?)
  • Login
  • US Flag 
 
02:30AM EST


 

Airport Tracker/Info


-or-


 

Live Flight TrackerFlight Track Log ✈ ASQ4231 ✈ 20-Jun-2013 ✈ MMSD / SJD - KIAH

Flight Track Log - Related Links

Times and Time Zones

All times are in EDT time to prevent confusion due to time zone crossing. See the ASQ4231 flight status page for this flight to view local times or setup timezone preferences in your user account.

Time Position Orientation Groundspeed Altitude Reporting Facility
EDT Latitude Longitude Course Direction KTS MPH feet Rate Location/Type
04:21PM 23.2921 -109.4368 62° Northeast  Level FlightAware Approximate
04:22PM 23.3388 -109.3419 62° Northeast  Level FlightAware Approximate
04:23PM 23.3853 -109.2470 62° Northeast  Level FlightAware Approximate
04:24PM 23.4319 -109.1520 62° Northeast  Level FlightAware Approximate
04:25PM 23.4783 -109.0569 62° Northeast  Level FlightAware Approximate
04:26PM 23.5247 -108.9618 62° Northeast  Level FlightAware Approximate
04:27PM 23.5711 -108.8666 62° Northeast  Level FlightAware Approximate
04:28PM 23.6174 -108.7713 62° Northeast  Level FlightAware Approximate
04:29PM 23.6636 -108.6759 62° Northeast  Level FlightAware Approximate
04:30PM 23.7098 -108.5805 62° Northeast  Level FlightAware Approximate
04:31PM 23.7559 -108.4850 62° Northeast  Level FlightAware Approximate
04:32PM 23.8020 -108.3895 62° Northeast  Level FlightAware Approximate
04:33PM 23.8480 -108.2939 62° Northeast  Level FlightAware Approximate
04:34PM 23.8939 -108.1982 62° Northeast  Level FlightAware Approximate
04:35PM 23.9398 -108.1024 62° Northeast  Level FlightAware Approximate
04:36PM 23.9856 -108.0066 62° Northeast  Level FlightAware Approximate
04:37PM 24.0314 -107.9107 62° Northeast  Level FlightAware Approximate
04:38PM 24.0771 -107.8148 62° Northeast  Level FlightAware Approximate
04:39PM 24.1227 -107.7188 62° Northeast  Level FlightAware Approximate
04:40PM 24.1683 -107.6227 63° Northeast  Level FlightAware Approximate
04:41PM 24.2138 -107.5265 63° Northeast  Level FlightAware Approximate
04:42PM 24.2570 -107.4355 62° Northeast  Level FlightAware Approximate
04:43PM 24.3029 -107.3395 62° Northeast  Level FlightAware Approximate
04:44PM 24.3488 -107.2434 62° Northeast  Level FlightAware Approximate
04:45PM 24.3946 -107.1473 62° Northeast  Level FlightAware Approximate
04:46PM 24.4404 -107.0511 62° Northeast  Level FlightAware Approximate
04:47PM 24.4861 -106.9549 62° Northeast  Level FlightAware Approximate
04:48PM 24.5317 -106.8585 62° Northeast  Level FlightAware Approximate
04:49PM 24.5773 -106.7621 63° Northeast  Level FlightAware Approximate
04:50PM 24.6228 -106.6657 63° Northeast  Level FlightAware Approximate
04:51PM 24.6683 -106.5691 63° Northeast  Level FlightAware Approximate
04:52PM 24.7137 -106.4725 63° Northeast  Level FlightAware Approximate
04:53PM 24.7590 -106.3758 63° Northeast  Level FlightAware Approximate
04:54PM 24.8043 -106.2790 63° Northeast  Level FlightAware Approximate
04:55PM 24.8495 -106.1822 63° Northeast  Level FlightAware Approximate
04:56PM 24.8946 -106.0853 63° Northeast  Level FlightAware Approximate
04:57PM 24.9397 -105.9883 63° Northeast  Level FlightAware Approximate
04:58PM 24.9847 -105.8913 63° Northeast  Level FlightAware Approximate
04:59PM 25.0297 -105.7942 63° Northeast  Level FlightAware Approximate
05:00PM 25.0746 -105.6970 63° Northeast  Level FlightAware Approximate
05:01PM 25.1194 -105.5998 63° Northeast  Level FlightAware Approximate
05:02PM 25.1648 -105.5028 62° Northeast  Level FlightAware Approximate
05:03PM 25.2116 -105.4066 62° Northeast  Level FlightAware Approximate
05:04PM 25.2583 -105.3103 62° Northeast  Level FlightAware Approximate
05:05PM 25.3049 -105.2139 62° Northeast  Level FlightAware Approximate
05:06PM 25.3514 -105.1175 62° Northeast  Level FlightAware Approximate
05:07PM 25.3979 -105.0210 62° Northeast  Level FlightAware Approximate
05:08PM 25.4421 -104.9231 64° Northeast  Level FlightAware Approximate
05:09PM 25.4861 -104.8251 64° Northeast  Level FlightAware Approximate
05:10PM 25.5300 -104.7270 64° Northeast  Level FlightAware Approximate
05:11PM 25.5739 -104.6288 64° Northeast  Level FlightAware Approximate
05:12PM 25.6177 -104.5306 64° Northeast  Level FlightAware Approximate
05:13PM 25.6614 -104.4323 64° Northeast  Level FlightAware Approximate
05:14PM 25.7051 -104.3339 64° Northeast  Level FlightAware Approximate
05:15PM 25.7487 -104.2355 64° Northeast  Level FlightAware Approximate
05:16PM 25.7922 -104.1370 64° Northeast  Level FlightAware Approximate
05:17PM 25.8357 -104.0384 64° Northeast  Level FlightAware Approximate
05:18PM 25.8791 -103.9397 64° Northeast  Level FlightAware Approximate
05:19PM 25.9224 -103.8410 64° Northeast  Level FlightAware Approximate
05:20PM 25.9657 -103.7422 64° Northeast  Level FlightAware Approximate
05:21PM 26.0089 -103.6433 64° Northeast  Level FlightAware Approximate
05:22PM 26.0520 -103.5443 64° Northeast  Level FlightAware Approximate
05:23PM 26.0951 -103.4453 64° Northeast  Level FlightAware Approximate
05:24PM 26.1381 -103.3462 64° Northeast  Level FlightAware Approximate
05:25PM 26.1810 -103.2470 64° Northeast  Level FlightAware Approximate
05:26PM 26.2239 -103.1478 64° Northeast  Level FlightAware Approximate
05:27PM 26.2667 -103.0485 64° Northeast  Level FlightAware Approximate
05:28PM 26.3094 -102.9491 64° Northeast  Level FlightAware Approximate
05:29PM 26.3521 -102.8496 64° Northeast  Level FlightAware Approximate
05:30PM 26.3946 -102.7501 64° Northeast  Level FlightAware Approximate
05:31PM 26.4372 -102.6505 64° Northeast  Level FlightAware Approximate
05:32PM 26.4796 -102.5508 65° Northeast  Level FlightAware Approximate
05:33PM 26.5220 -102.4510 65° Northeast  Level FlightAware Approximate
05:34PM 26.5643 -102.3512 65° Northeast  Level FlightAware Approximate
05:35PM 26.6066 -102.2513 65° Northeast  Level FlightAware Approximate
05:36PM 26.6487 -102.1513 65° Northeast  Level FlightAware Approximate
05:37PM 26.6908 -102.0512 65° Northeast  Level FlightAware Approximate
05:38PM 26.7329 -101.9511 65° Northeast  Level FlightAware Approximate
05:39PM 26.7773 -101.8523 63° Northeast  Level FlightAware Approximate
05:40PM 26.8218 -101.7534 63° Northeast  Level FlightAware Approximate
05:41PM 26.8661 -101.6544 63° Northeast  Level FlightAware Approximate
05:42PM 26.9104 -101.5554 63° Northeast  Level FlightAware Approximate
05:43PM 26.9529 -101.4555 74° East  Level FlightAware Approximate
05:44PM 26.9805 -101.3490 74° East  Level FlightAware Approximate
05:45PM 27.0080 -101.2424 74° East  Level FlightAware Approximate
05:46PM 27.0354 -101.1359 74° East  Level FlightAware Approximate
05:47PM 27.0627 -101.0292 74° East  Level FlightAware Approximate
05:48PM 27.0900 -100.9225 74° East  Level FlightAware Approximate
05:49PM 27.1161 -100.8155 75° East  Level FlightAware Approximate
05:50PM 27.1415 -100.7082 75° East  Level FlightAware Approximate
05:51PM 27.1668 -100.6008 75° East  Level FlightAware Approximate
05:52PM 27.1920 -100.4934 75° East  Level FlightAware Approximate
05:53PM 27.2172 -100.3859 75° East  Level FlightAware Approximate
05:54PM 27.2428 -100.2786 74° East  Level FlightAware Approximate
05:54PM 27.3156 -99.9575 75° East 473 544 35,000  Level Houston Center
05:55PM 27.2692 -100.1715 74° East  Level FlightAware Approximate
05:55PM 27.3883 -99.8336 56° Northeast 474 545 35,000  Level Houston Center
05:56PM 27.2955 -100.0643 75° East  Level FlightAware Approximate
05:56PM 27.4631 -99.7097 56° Northeast 477 549 35,000  Level Houston Center
05:57PM 27.3218 -99.9571 75° East  Level FlightAware Approximate
05:57PM 27.5386 -99.5883 55° Northeast 473 544 35,000  Level Houston Center
05:58PM 27.3480 -99.8498 75° East  Level FlightAware Approximate
05:58PM 27.6142 -99.4653 55° Northeast 474 545 35,000  Level Houston Center
05:59PM 27.3741 -99.7425 75° East  Level FlightAware Approximate
05:59PM 27.7044 -99.3172 55° Northeast 475 547 35,000  Level Houston Center
06:00PM 27.7800 -99.1931 55° Northeast 474 545 34,900  Descending Houston Center
06:01PM 27.8519 -99.0731 56° Northeast 468 539 35,000  Climbing Houston Center
06:02PM 27.9169 -98.9631 56° Northeast 435 501 35,000  Level Houston Center
06:03PM 27.9839 -98.8522 56° Northeast 423 487 35,000  Level Houston Center
06:04PM 28.0508 -98.7394 56° Northeast 427 491 35,000  Level Houston Center
06:05PM 28.1189 -98.6258 56° Northeast 433 498 35,000  Level Houston Center
06:06PM 28.1994 -98.4900 56° Northeast 433 498 35,000  Level Houston Center
06:07PM 28.2653 -98.3797 56° Northeast 425 489 35,000  Level Houston Center
06:08PM 28.3292 -98.2717 56° Northeast 418 481 35,000  Level Houston Center
06:09PM 28.3931 -98.1642 56° Northeast 413 475 35,000  Level Houston Center
06:10PM 28.4567 -98.0561 56° Northeast 411 473 35,000  Level Houston Center
06:12PM 28.5186 -97.9472 57° Northeast 411 473 35,000  Level Houston Center
06:13PM 28.5939 -97.8178 56° Northeast 410 472 35,000  Level Houston Center
06:14PM 28.6589 -97.7122 55° Northeast 408 470 35,000  Level Houston Center
06:15PM 28.7211 -97.6031 57° Northeast 409 471 35,000  Level Houston Center
06:16PM 28.7872 -97.4961 55° Northeast 413 475 35,000  Level Houston Center
06:17PM 28.8728 -97.3964 46° Northeast 404 465 35,000  Level Houston Center
06:18PM 28.9775 -97.3972 360° North 401 461 35,000  Level Houston Center
06:19PM 29.0639 -97.4608 327° Northwest 376 433 35,000 -60 Level Houston Center
06:20PM 29.1619 -97.5319 328° Northwest 369 425 34,900 -840 Descending Houston Center
06:21PM 29.2731 -97.5492 352° North 402 463 33,300 -1,680 Descending Houston Center
06:22PM 29.3906 -97.5117 16° North 431 496 31,500 -1,860 Descending Houston Center
06:23PM 29.4964 -97.4394 31° Northeast 452 520 29,500 -2,220 Descending Houston Center
06:24PM 29.5286 -97.2978 75° East 474 545 27,000 -2,280 Descending Houston Center
06:25PM 29.5311 -97.1592 89° East 441 507 24,900 -1,500 Descending Houston Center
06:26PM 29.5333 -97.0242 89° East 422 486 24,000 -780 Descending Houston Center
06:27PM 29.5361 -96.8936 89° East 411 473 23,300 -1,500 Descending Houston Center
06:28PM 29.5386 -96.7422 89° East 401 461 20,900 -2,400 Descending Houston Center
06:29PM 29.5403 -96.6231 89° East 377 434 18,400 -2,280 Descending Houston Center
06:30PM 29.5408 -96.5072 90° East 364 419 16,300 -2,220 Descending Houston Center
06:31PM 29.5436 -96.3661 89° East 382 440 13,800 -2,100 Descending Houston Center
06:32PM 29.5439 -96.2942 90° East 363 418 12,800 -1,140 Descending Houston Center
06:33PM 29.5450 -96.1836 89° East 347 399 12,000 -420 Descending Houston Center
06:34PM 29.5869 -96.0853 64° Northeast 354 407 12,000 -540 Level Houston Center
06:35PM 29.6389 -95.9833 60° Northeast 344 396 10,900 -1,020 Descending Houston Center
06:36PM 29.6872 -95.8889 59° Northeast 340 391 10,000 -600 Descending Houston Center
06:37PM 29.7300 -95.8019 60° Northeast 305 351 9,700 -960 Descending Houston Center
06:38PM 29.7711 -95.7203 60° Northeast 279 321 8,100 -1,680 Descending Houston Center
06:39PM 29.8139 -95.6358 60° Northeast 289 333 6,300 -1,020 Descending Houston Center
06:40PM 29.8547 -95.5517 61° Northeast 274 315 6,000 -180 Descending Houston Center
06:41PM 29.8919 -95.4772 60° Northeast 268 308 6,000  Level Houston Center
06:42PM 29.8961 -95.4069 86° East 240 276 6,000  Level Houston Center
06:43PM 29.8967 -95.3694 89° East 247 284 6,000  Level Houston Center
06:43PM 29.8964 -95.3178 90° East 238 274 6,000 -480 Level Houston Center
06:44PM 29.8958 -95.2431 90° East 233 268 5,300 -1,260 Descending Houston Center
06:45PM 29.8972 -95.1681 89° East 236 272 3,600 -1,620 Descending Houston Center
06:46PM 29.8975 -95.1408 89° East 236 272 3,000 -1,260 Descending Houston Center
06:46PM 29.9111 -95.0917 72° East 235 270 2,200 -660 Descending Houston Center
06:47PM 29.9594 -95.1147 338° Northwest 192 221 2,000 -240 Descending Houston Center